createdAt,value
2022-08-10T00:00:33.235Z,50.96
2022-08-10T00:01:32.951Z,47.20
2022-08-10T00:02:33.101Z,51.27
2022-08-10T00:03:32.889Z,50.14
2022-08-10T00:04:32.878Z,48.11
2022-08-10T00:05:43.819Z,46.85
2022-08-10T00:06:33.869Z,48.67
2022-08-10T00:07:32.856Z,50.38
2022-08-10T00:08:32.886Z,48.07
2022-08-10T00:09:32.849Z,49.68
2022-08-10T00:10:33.828Z,49.39
2022-08-10T00:11:32.828Z,46.19
2022-08-10T00:12:53.688Z,46.24
2022-08-10T00:13:33.829Z,46.44
2022-08-10T00:14:32.817Z,47.97
2022-08-10T00:15:52.559Z,46.89
2022-08-10T00:16:33.796Z,48.62
2022-08-10T00:17:32.789Z,48.14
2022-08-10T00:18:35.840Z,48.44
2022-08-10T00:19:44.630Z,50.94
2022-08-10T00:20:33.764Z,51.48
2022-08-10T00:21:32.764Z,49.01
2022-08-10T00:22:32.991Z,50.63
2022-08-10T00:23:32.756Z,49.22
2022-08-10T00:24:32.740Z,49.15
2022-08-10T00:25:32.745Z,49.16
2022-08-10T00:27:52.985Z,47.75
2022-08-10T00:28:01.389Z,49.09
2022-08-10T00:28:33.715Z,48.62
2022-08-10T00:29:32.718Z,47.01
2022-08-10T00:30:32.720Z,50.55
2022-08-10T00:31:32.706Z,51.94
2022-08-10T00:32:33.853Z,55.03
2022-08-10T00:33:32.692Z,51.30
2022-08-10T00:34:32.698Z,46.96
2022-08-10T00:35:32.670Z,47.54
2022-08-10T00:36:32.663Z,46.25
2022-08-10T00:37:32.663Z,49.30
2022-08-10T00:38:32.651Z,48.81
2022-08-10T00:39:36.367Z,49.32
2022-08-10T00:40:37.557Z,48.61
2022-08-10T00:41:32.629Z,48.50
2022-08-10T00:42:32.882Z,48.28
2022-08-10T00:43:32.619Z,51.41
2022-08-10T00:44:32.627Z,47.67
2022-08-10T00:45:32.602Z,47.70
2022-08-10T00:46:32.599Z,48.69
2022-08-10T00:47:37.078Z,47.79
2022-08-10T00:48:33.582Z,49.29
2022-08-10T00:49:32.583Z,47.48
2022-08-10T00:50:32.572Z,50.62
2022-08-10T00:51:43.130Z,49.06
2022-08-10T00:52:33.840Z,50.21
2022-08-10T00:53:32.554Z,50.64
2022-08-10T00:54:32.543Z,51.92
2022-08-10T00:55:32.564Z,48.33
2022-08-10T00:57:12.487Z,48.87
2022-08-10T00:57:33.520Z,49.00
2022-08-10T00:58:32.526Z,53.34
2022-08-10T00:59:32.522Z,49.83
2022-08-10T01:00:32.527Z,51.82
2022-08-10T01:02:09.177Z,51.31
2022-08-10T01:02:33.711Z,49.32
2022-08-10T01:04:40.072Z,46.69
2022-08-10T01:04:54.180Z,49.09
2022-08-10T01:05:33.478Z,51.44
2022-08-10T01:06:32.458Z,48.82
2022-08-10T01:07:32.468Z,49.49
2022-08-10T01:08:33.450Z,53.91
2022-08-10T01:09:32.438Z,48.15
2022-08-10T01:10:32.429Z,49.00
2022-08-10T01:12:37.110Z,51.57
2022-08-10T01:12:38.673Z,47.77
2022-08-10T01:13:32.406Z,50.18
2022-08-10T01:14:32.395Z,47.75
2022-08-10T01:15:32.386Z,49.41
2022-08-10T01:16:32.382Z,53.34
2022-08-10T01:17:50.749Z,48.22
2022-08-10T01:18:37.243Z,47.05
2022-08-10T01:19:33.367Z,49.96
2022-08-10T01:20:32.359Z,52.48
2022-08-10T01:21:32.344Z,49.27
2022-08-10T01:22:32.582Z,49.30
2022-08-10T01:23:32.355Z,49.69
2022-08-10T01:24:32.323Z,54.10
2022-08-10T01:25:32.320Z,52.86
2022-08-10T01:26:32.330Z,52.79
2022-08-10T01:27:32.306Z,50.58
2022-08-10T01:28:32.327Z,51.12
2022-08-10T01:29:32.278Z,49.27
2022-08-10T01:30:32.295Z,48.04
2022-08-10T01:31:32.279Z,47.98
2022-08-10T01:32:32.423Z,48.60
2022-08-10T01:34:01.822Z,51.73
2022-08-10T01:34:33.258Z,49.27
2022-08-10T01:35:32.271Z,50.68
2022-08-10T01:36:32.813Z,49.42
2022-08-10T01:37:32.239Z,47.01
2022-08-10T01:38:32.236Z,49.38
2022-08-10T01:39:32.271Z,51.65
2022-08-10T01:40:32.216Z,50.13
2022-08-10T01:41:45.848Z,48.75
2022-08-10T01:42:33.526Z,48.67
2022-08-10T01:43:32.189Z,53.37
2022-08-10T01:44:32.198Z,49.81
2022-08-10T01:45:45.159Z,49.72
2022-08-10T01:46:33.170Z,49.42
2022-08-10T01:47:32.184Z,51.53
2022-08-10T01:48:32.236Z,51.11
2022-08-10T01:49:32.164Z,54.50
2022-08-10T01:50:32.166Z,52.64
2022-08-10T01:51:32.134Z,49.58
2022-08-10T01:52:32.166Z,52.07
2022-08-10T01:53:41.258Z,52.75
2022-08-10T01:54:33.114Z,50.13
2022-08-10T01:55:32.110Z,55.29
2022-08-10T01:56:32.102Z,48.39
2022-08-10T01:57:32.078Z,50.15
2022-08-10T01:58:32.082Z,48.88
2022-08-10T01:59:32.098Z,48.54
2022-08-10T02:00:32.074Z,49.64
2022-08-10T02:01:32.082Z,51.80
2022-08-10T02:02:32.076Z,51.04
2022-08-10T02:03:32.048Z,51.63
2022-08-10T02:04:32.056Z,51.48
2022-08-10T02:05:32.026Z,51.10
2022-08-10T02:06:32.035Z,47.94
2022-08-10T02:07:32.024Z,49.95
2022-08-10T02:08:32.010Z,49.06
2022-08-10T02:09:32.020Z,51.24
2022-08-10T02:10:31.988Z,50.10
2022-08-10T02:12:06.546Z,48.03
2022-08-10T02:12:33.171Z,50.34
2022-08-10T02:13:31.981Z,53.27
2022-08-10T02:14:33.466Z,47.15
2022-08-10T02:15:32.960Z,47.26
2022-08-10T02:16:31.956Z,52.14
2022-08-10T02:17:57.081Z,52.81
2022-08-10T02:18:32.944Z,51.19
2022-08-10T02:19:31.931Z,49.91
2022-08-10T02:20:31.928Z,49.80
2022-08-10T02:21:31.923Z,49.41
2022-08-10T02:22:45.877Z,50.56
2022-08-10T02:23:32.911Z,48.75
2022-08-10T02:24:31.894Z,51.64
2022-08-10T02:25:40.612Z,48.85
2022-08-10T02:26:32.886Z,50.74
2022-08-10T02:27:31.896Z,52.35
2022-08-10T02:28:31.872Z,52.68
2022-08-10T02:29:31.874Z,52.13
2022-08-10T02:30:31.854Z,52.38
2022-08-10T02:31:31.855Z,52.44
2022-08-10T02:32:36.604Z,53.50
2022-08-10T02:33:32.829Z,52.61
2022-08-10T02:34:31.827Z,50.93
2022-08-10T02:35:55.097Z,50.90
2022-08-10T02:36:32.813Z,51.60
2022-08-10T02:37:31.802Z,52.01
2022-08-10T02:38:58.408Z,54.25
2022-08-10T02:39:32.836Z,52.57
2022-08-10T02:45:00.914Z,48.35
2022-08-10T02:45:15.317Z,48.88
2022-08-10T02:45:20.481Z,50.61
2022-08-10T02:45:21.829Z,48.21
2022-08-10T02:45:23.631Z,51.74
2022-08-10T02:45:34.221Z,51.99
2022-08-10T02:46:31.736Z,52.93
2022-08-10T02:47:51.027Z,51.20
2022-08-10T02:48:32.740Z,51.84
2022-08-10T02:49:31.719Z,52.17
2022-08-10T02:50:31.708Z,52.32
2022-08-10T02:52:07.440Z,50.17
2022-08-10T02:52:33.803Z,52.05
2022-08-10T02:53:51.505Z,50.35
2022-08-10T02:54:32.687Z,54.58
2022-08-10T02:55:32.697Z,52.54
2022-08-10T02:56:31.746Z,52.88
2022-08-10T02:57:31.655Z,52.71
2022-08-10T02:58:31.654Z,49.72
2022-08-10T02:59:39.508Z,51.31
2022-08-10T03:00:32.655Z,51.08
2022-08-10T03:01:31.696Z,52.69
2022-08-10T03:02:31.628Z,52.73
2022-08-10T03:03:31.625Z,56.42
2022-08-10T03:04:57.111Z,54.49
2022-08-10T03:05:32.586Z,52.64
2022-08-10T03:06:31.610Z,52.17
2022-08-10T03:07:43.399Z,53.22
2022-08-10T03:08:32.575Z,51.68
2022-08-10T03:09:31.570Z,51.30
2022-08-10T03:10:31.565Z,51.77
2022-08-10T03:12:36.420Z,55.28
2022-08-10T03:12:38.464Z,52.16
2022-08-10T03:13:32.539Z,53.96
2022-08-10T03:14:31.530Z,52.55
2022-08-10T03:15:31.534Z,52.52
2022-08-10T03:16:33.078Z,53.67
2022-08-10T03:17:31.497Z,55.02
2022-08-10T03:18:31.506Z,53.17
2022-08-10T03:20:34.537Z,53.72
2022-08-10T03:20:37.155Z,55.03
2022-08-10T03:21:31.490Z,56.49
2022-08-10T03:22:31.496Z,54.14
2022-08-10T03:23:31.477Z,56.52
2022-08-10T03:24:33.066Z,56.14
2022-08-10T03:25:31.453Z,56.04
2022-08-10T03:26:31.446Z,55.24
2022-08-10T03:27:31.437Z,54.94
2022-08-10T03:28:31.434Z,56.75
2022-08-10T03:29:31.425Z,56.16
2022-08-10T03:30:34.299Z,56.03
2022-08-10T03:31:31.434Z,57.19
2022-08-10T03:32:31.428Z,55.38
2022-08-10T03:33:31.414Z,55.02
2022-08-10T03:34:33.462Z,55.68
2022-08-10T03:35:31.388Z,56.08
2022-08-10T03:36:43.415Z,57.14
2022-08-10T03:37:32.367Z,54.98
2022-08-10T03:38:31.399Z,55.15
2022-08-10T03:39:31.403Z,55.73
2022-08-10T03:40:35.859Z,55.28
2022-08-10T03:41:35.660Z,56.54
2022-08-10T03:42:31.372Z,58.48
2022-08-10T03:43:31.331Z,56.74
2022-08-10T03:44:31.339Z,58.94
2022-08-10T03:45:31.317Z,58.04
2022-08-10T03:46:32.306Z,57.27
2022-08-10T03:47:31.310Z,55.89
2022-08-10T03:48:47.004Z,56.78
2022-08-10T03:49:32.281Z,59.24
2022-08-10T03:50:51.148Z,58.17
2022-08-10T03:51:32.270Z,58.12
2022-08-10T03:52:31.273Z,57.12
2022-08-10T03:54:05.248Z,59.17
2022-08-10T03:54:32.284Z,58.21
2022-08-10T03:56:28.528Z,57.09
2022-08-10T03:56:32.980Z,54.94
2022-08-10T03:57:31.237Z,56.16
2022-08-10T03:58:31.222Z,57.75
2022-08-10T03:59:31.229Z,57.72
2022-08-10T04:00:31.213Z,57.39
2022-08-10T04:02:44.804Z,56.76
2022-08-10T04:02:45.314Z,58.10
2022-08-10T04:03:32.187Z,56.36
2022-08-10T04:04:31.210Z,57.46
2022-08-10T04:05:38.157Z,57.44
2022-08-10T04:06:32.179Z,58.21
2022-08-10T04:07:31.161Z,59.22
2022-08-10T04:08:31.159Z,61.30
2022-08-10T04:09:53.620Z,60.48
2022-08-10T04:10:32.155Z,58.38
2022-08-10T04:11:31.140Z,58.87
2022-08-10T04:12:31.131Z,58.52
2022-08-10T04:13:31.122Z,57.13
2022-08-10T04:14:35.615Z,57.97
2022-08-10T04:15:32.110Z,57.99
2022-08-10T04:16:31.106Z,57.76
2022-08-10T04:18:05.223Z,60.87
2022-08-10T04:18:32.095Z,58.85
2022-08-10T04:19:31.099Z,58.16
2022-08-10T04:20:34.515Z,59.74
2022-08-10T04:21:31.072Z,57.95
2022-08-10T04:22:31.071Z,57.03
2022-08-10T04:23:31.050Z,57.99
2022-08-10T04:24:31.952Z,58.52
2022-08-10T04:25:31.070Z,57.16
2022-08-10T04:26:31.034Z,57.88
2022-08-10T04:27:31.026Z,57.52
2022-08-10T04:28:31.022Z,58.12
2022-08-10T04:29:31.015Z,59.27
2022-08-10T04:30:30.999Z,59.37
2022-08-10T04:31:31.003Z,57.38
2022-08-10T04:32:31.027Z,58.20
2022-08-10T04:33:30.995Z,58.68
2022-08-10T04:34:30.979Z,59.52
2022-08-10T04:35:30.976Z,57.88
2022-08-10T04:36:30.963Z,58.21
2022-08-10T04:37:30.987Z,59.53
2022-08-10T04:38:31.018Z,58.37
2022-08-10T04:39:31.036Z,59.57
2022-08-10T04:40:31.165Z,59.76
2022-08-10T04:41:31.927Z,59.22
2022-08-10T04:42:31.034Z,58.55
2022-08-10T04:43:30.938Z,61.38
2022-08-10T04:44:30.904Z,60.17
2022-08-10T04:45:48.749Z,59.85
2022-08-10T04:46:56.437Z,58.81
2022-08-10T04:47:57.590Z,61.47
2022-08-10T04:48:40.878Z,59.14
2022-08-10T04:49:55.952Z,59.07
2022-08-10T04:50:31.859Z,59.71
2022-08-10T04:51:30.883Z,60.01
2022-08-10T04:52:30.860Z,59.20
2022-08-10T04:53:30.838Z,59.04
2022-08-10T04:54:30.870Z,59.37
2022-08-10T04:55:30.823Z,59.22
2022-08-10T04:56:31.352Z,58.49
2022-08-10T04:57:30.838Z,60.72
2022-08-10T04:58:30.902Z,58.67
2022-08-10T04:59:30.810Z,60.95
2022-08-10T05:00:30.839Z,59.42
2022-08-10T05:01:37.800Z,58.33
2022-08-10T05:02:32.381Z,59.15
2022-08-10T05:03:31.770Z,59.03
2022-08-10T05:04:37.516Z,58.75
2022-08-10T05:05:31.766Z,58.82
2022-08-10T05:06:30.750Z,59.09
2022-08-10T05:07:30.768Z,58.54
2022-08-10T05:08:30.771Z,57.53
2022-08-10T05:09:30.746Z,58.01
2022-08-10T05:10:30.746Z,58.96
2022-08-10T05:11:30.731Z,58.60
2022-08-10T05:12:30.713Z,57.68
2022-08-10T05:13:30.730Z,57.85
2022-08-10T05:14:30.776Z,57.35
2022-08-10T05:15:30.695Z,57.57
2022-08-10T05:16:31.790Z,59.74
2022-08-10T05:17:30.670Z,59.13
2022-08-10T05:18:30.872Z,58.56
2022-08-10T05:20:02.792Z,58.58
2022-08-10T05:20:31.674Z,57.07
2022-08-10T05:21:59.778Z,57.80
2022-08-10T05:22:31.646Z,57.34
2022-08-10T05:23:30.617Z,56.50
2022-08-10T05:24:30.618Z,57.56
2022-08-10T05:25:32.668Z,56.64
2022-08-10T05:26:30.614Z,56.05
2022-08-10T05:27:30.604Z,57.03
2022-08-10T05:28:35.187Z,56.95
2022-08-10T05:29:31.679Z,56.28
2022-08-10T05:30:30.577Z,56.22
2022-08-10T05:31:30.641Z,55.59
2022-08-10T05:32:30.683Z,56.70
2022-08-10T05:33:30.610Z,57.41
2022-08-10T05:34:30.582Z,57.04
2022-08-10T05:35:56.452Z,56.27
2022-08-10T05:36:31.578Z,57.47
2022-08-10T05:38:12.962Z,57.36
2022-08-10T05:38:31.540Z,57.38
2022-08-10T05:39:32.091Z,57.91
2022-08-10T05:40:30.513Z,58.19
2022-08-10T05:41:30.536Z,57.17
2022-08-10T05:42:30.490Z,57.11
2022-08-10T05:43:30.494Z,57.32
2022-08-10T05:44:30.494Z,58.96
2022-08-10T05:45:30.474Z,57.39
2022-08-10T05:46:30.466Z,56.59
2022-08-10T05:48:53.977Z,56.19
2022-08-10T05:48:55.363Z,55.22
2022-08-10T05:49:31.469Z,57.71
2022-08-10T05:50:30.438Z,56.69
2022-08-10T05:51:30.539Z,56.49
2022-08-10T05:52:30.434Z,56.82
2022-08-10T05:54:02.722Z,56.34
2022-08-10T05:54:31.401Z,56.90
2022-08-10T05:55:30.399Z,57.40
2022-08-10T05:56:54.147Z,57.06
2022-08-10T05:57:31.386Z,56.58
2022-08-10T05:58:30.381Z,58.87
2022-08-10T06:00:11.074Z,65.07
2022-08-10T06:00:39.829Z,56.84
2022-08-10T06:01:31.419Z,54.87
2022-08-10T06:02:34.920Z,53.77
2022-08-10T06:03:30.339Z,55.55
2022-08-10T06:04:30.354Z,55.65
2022-08-10T06:05:30.321Z,56.23
2022-08-10T06:06:30.325Z,54.76
2022-08-10T06:07:30.302Z,55.02
2022-08-10T06:08:30.301Z,53.92
2022-08-10T06:09:30.315Z,54.20
2022-08-10T06:10:32.071Z,54.27
2022-08-10T06:12:25.416Z,54.57
2022-08-10T06:12:53.444Z,54.73
2022-08-10T06:13:53.673Z,56.37
2022-08-10T06:14:31.254Z,56.08
2022-08-10T06:15:51.382Z,55.48
2022-08-10T06:16:31.251Z,59.30
2022-08-10T06:17:30.247Z,74.25
2022-08-10T06:18:30.240Z,71.63
2022-08-10T06:19:30.219Z,59.50
2022-08-10T06:20:35.352Z,64.15
2022-08-10T06:21:32.219Z,69.91
2022-08-10T06:22:30.205Z,57.88
2022-08-10T06:23:30.205Z,57.07
2022-08-10T06:24:30.672Z,56.39
2022-08-10T06:26:10.807Z,55.90
2022-08-10T06:26:32.169Z,56.59
2022-08-10T06:27:34.241Z,56.56
2022-08-10T06:28:30.165Z,54.75
2022-08-10T06:29:30.210Z,54.92
2022-08-10T06:30:30.156Z,54.85
2022-08-10T06:31:49.090Z,54.87
2022-08-10T06:32:32.283Z,56.41
2022-08-10T06:33:30.133Z,54.88
2022-08-10T06:34:30.133Z,54.67
2022-08-10T06:35:30.122Z,53.95
2022-08-10T06:36:34.127Z,54.26
2022-08-10T06:37:30.109Z,52.55
2022-08-10T06:38:30.095Z,53.15
2022-08-10T06:39:34.982Z,54.75
2022-08-10T06:40:32.089Z,53.61
2022-08-10T06:41:57.994Z,51.89
2022-08-10T06:42:31.077Z,54.94
2022-08-10T06:43:30.068Z,54.36
2022-08-10T06:44:30.055Z,53.21
2022-08-10T06:45:30.057Z,50.86
2022-08-10T06:46:30.065Z,51.85
2022-08-10T06:47:30.041Z,53.15
2022-08-10T06:48:30.037Z,53.70
2022-08-10T06:49:30.030Z,52.62
2022-08-10T06:50:34.854Z,53.21
2022-08-10T06:51:31.030Z,58.55
2022-08-10T06:52:30.010Z,56.46
2022-08-10T06:53:52.455Z,52.36
2022-08-10T06:54:31.002Z,52.15
2022-08-10T06:55:50.055Z,51.59
2022-08-10T06:56:35.795Z,54.33
2022-08-10T06:57:30.975Z,49.51
2022-08-10T06:58:29.973Z,50.87
2022-08-10T06:59:29.957Z,52.27
2022-08-10T07:00:32.759Z,52.68
2022-08-10T07:01:30.017Z,51.75
2022-08-10T07:02:29.947Z,50.70
2022-08-10T07:03:29.942Z,51.42
2022-08-10T07:04:32.078Z,50.99
2022-08-10T07:05:29.925Z,52.68
2022-08-10T07:06:29.913Z,51.89
2022-08-10T07:07:29.913Z,50.35
2022-08-10T07:08:29.909Z,50.65
2022-08-10T07:09:29.885Z,49.49
2022-08-10T07:10:46.001Z,51.06
2022-08-10T07:11:30.885Z,50.15
2022-08-10T07:12:29.885Z,50.51
2022-08-10T07:14:17.198Z,50.67
2022-08-10T07:14:30.857Z,52.28
2022-08-10T07:15:58.172Z,50.58
2022-08-10T07:16:30.849Z,51.45
2022-08-10T07:17:29.865Z,51.25
2022-08-10T07:18:29.873Z,51.68
2022-08-10T07:19:29.824Z,51.50
2022-08-10T07:20:29.825Z,51.53
2022-08-10T07:21:29.809Z,49.71
2022-08-10T07:23:08.275Z,49.85
2022-08-10T07:23:57.053Z,51.57
2022-08-10T07:24:30.786Z,49.94
2022-08-10T07:25:29.805Z,51.92
2022-08-10T07:26:29.781Z,52.12
2022-08-10T07:27:29.781Z,49.72
2022-08-10T07:28:30.764Z,50.00
2022-08-10T07:29:53.730Z,51.42
2022-08-10T07:30:30.772Z,52.70
2022-08-10T07:31:54.607Z,51.35
2022-08-10T07:32:30.742Z,51.72
2022-08-10T07:33:29.730Z,50.54
2022-08-10T07:34:30.195Z,51.67
2022-08-10T07:35:36.339Z,51.30
2022-08-10T07:36:31.726Z,51.66
2022-08-10T07:37:29.710Z,48.87
2022-08-10T07:38:29.701Z,49.44
2022-08-10T07:39:58.430Z,50.12
2022-08-10T07:40:30.784Z,50.09
2022-08-10T07:41:29.681Z,51.07
2022-08-10T07:42:31.140Z,50.35
2022-08-10T07:43:29.664Z,51.00
2022-08-10T07:44:29.675Z,50.48
2022-08-10T07:45:29.661Z,49.79
2022-08-10T07:46:30.658Z,49.53
2022-08-10T07:47:46.243Z,50.90
2022-08-10T07:48:30.645Z,49.22
2022-08-10T07:49:29.625Z,51.45
2022-08-10T07:50:35.335Z,52.75
2022-08-10T07:51:30.676Z,51.93
2022-08-10T07:52:29.605Z,52.06
2022-08-10T07:53:29.741Z,50.58
2022-08-10T07:54:29.588Z,49.12
2022-08-10T07:56:07.450Z,51.63
2022-08-10T07:56:48.668Z,51.96
2022-08-10T07:57:34.760Z,49.57
2022-08-10T07:58:29.609Z,51.57
2022-08-10T07:59:29.565Z,49.84
2022-08-10T08:00:29.549Z,50.23
2022-08-10T08:01:29.596Z,49.85
2022-08-10T08:02:29.568Z,49.14
2022-08-10T08:03:29.579Z,50.15
2022-08-10T08:04:30.520Z,47.30
2022-08-10T08:05:58.566Z,46.50
2022-08-10T08:06:30.511Z,48.53
2022-08-10T08:07:29.496Z,48.87
2022-08-10T08:08:29.524Z,48.06
2022-08-10T08:09:29.506Z,49.70
2022-08-10T08:10:29.491Z,49.42
2022-08-10T08:11:29.488Z,48.84
2022-08-10T08:12:32.505Z,49.53
2022-08-10T08:13:29.479Z,50.50
2022-08-10T08:14:29.473Z,50.34
2022-08-10T08:16:20.899Z,48.57
2022-08-10T08:16:30.452Z,50.77
2022-08-10T08:17:35.772Z,51.47
2022-08-10T08:18:30.441Z,51.12
2022-08-10T08:19:37.765Z,51.18
2022-08-10T08:20:30.433Z,52.53
2022-08-10T08:24:04.876Z,49.90
2022-08-10T08:24:08.091Z,50.69
2022-08-10T08:24:09.713Z,48.34
2022-08-10T08:24:32.598Z,49.59
2022-08-10T08:25:29.396Z,46.52
2022-08-10T08:26:30.297Z,48.87
2022-08-10T08:27:29.384Z,48.58
2022-08-10T08:28:29.392Z,50.49
2022-08-10T08:29:29.395Z,50.25
2022-08-10T08:30:29.376Z,50.52
2022-08-10T08:31:29.392Z,50.49
2022-08-10T08:32:29.443Z,51.44
2022-08-10T08:33:41.819Z,47.84
2022-08-10T08:34:30.367Z,48.16
2022-08-10T08:35:29.348Z,49.69
2022-08-10T08:36:29.352Z,51.30
2022-08-10T08:38:31.148Z,50.01
2022-08-10T08:38:34.379Z,49.17
2022-08-10T08:39:29.328Z,48.56
2022-08-10T08:40:29.311Z,50.52
2022-08-10T08:41:29.315Z,48.98
2022-08-10T08:42:29.295Z,48.71
2022-08-10T08:43:31.558Z,48.91
2022-08-10T08:44:34.646Z,47.63
2022-08-10T08:45:30.273Z,48.46
2022-08-10T08:46:29.271Z,50.04
2022-08-10T08:48:02.854Z,49.18
2022-08-10T08:48:30.264Z,49.19
2022-08-10T08:50:04.520Z,47.09
2022-08-10T08:50:30.256Z,47.43
2022-08-10T08:52:16.900Z,48.64
2022-08-10T08:52:30.237Z,48.75
2022-08-10T08:54:02.849Z,47.22
2022-08-10T08:54:32.811Z,48.86
2022-08-10T08:56:03.165Z,49.53
2022-08-10T08:56:30.235Z,51.74
2022-08-10T08:57:50.401Z,48.61
2022-08-10T08:58:30.199Z,48.50
2022-08-10T08:59:29.239Z,49.40
2022-08-10T09:00:30.040Z,49.46
2022-08-10T09:01:40.588Z,45.58
2022-08-10T09:02:30.188Z,43.52
2022-08-10T09:03:29.234Z,45.20
2022-08-10T09:04:29.159Z,49.13
2022-08-10T09:05:29.164Z,46.93
2022-08-10T09:06:29.173Z,49.10
2022-08-10T09:07:59.174Z,47.72
2022-08-10T09:08:30.154Z,46.75
2022-08-10T09:09:29.140Z,49.75
2022-08-10T09:10:31.911Z,49.72
2022-08-10T09:11:29.143Z,48.04
2022-08-10T09:12:29.159Z,47.44
2022-08-10T09:13:29.127Z,48.71
2022-08-10T09:14:29.107Z,46.75
2022-08-10T09:15:40.731Z,46.82
2022-08-10T09:16:30.147Z,46.52
2022-08-10T09:17:29.344Z,46.05
2022-08-10T09:18:29.093Z,45.83
2022-08-10T09:19:35.535Z,45.13
2022-08-10T09:20:30.099Z,45.23
2022-08-10T09:21:29.075Z,47.11
2022-08-10T09:22:29.251Z,49.65
2022-08-10T09:24:05.208Z,46.47
2022-08-10T09:24:30.055Z,47.02
2022-08-10T09:25:29.051Z,48.74
2022-08-10T09:26:29.051Z,47.27
2022-08-10T09:27:29.044Z,48.29
2022-08-10T09:28:29.067Z,49.73
2022-08-10T09:29:29.045Z,49.66
2022-08-10T09:30:31.652Z,50.56
2022-08-10T09:31:29.052Z,48.45
2022-08-10T09:35:39.897Z,47.03
2022-08-10T09:36:19.792Z,45.19
2022-08-10T09:36:28.401Z,46.12
2022-08-10T09:36:29.650Z,46.46
2022-08-10T09:36:33.234Z,47.19
2022-08-10T09:37:40.053Z,44.99
2022-08-10T09:38:29.987Z,48.55
2022-08-10T09:40:06.547Z,48.40
2022-08-10T09:41:01.020Z,45.22
2022-08-10T09:41:30.001Z,45.94
2022-08-10T09:42:28.981Z,44.80
2022-08-10T09:43:28.952Z,44.34
2022-08-10T09:44:28.965Z,45.76
2022-08-10T09:45:28.949Z,45.71
2022-08-10T09:46:28.946Z,45.88
2022-08-10T09:48:02.347Z,46.17
2022-08-10T09:48:29.931Z,46.99
2022-08-10T09:49:53.396Z,44.59
2022-08-10T09:50:55.722Z,43.89
2022-08-10T09:51:47.402Z,46.92
2022-08-10T09:52:30.915Z,45.59
2022-08-10T09:53:28.894Z,45.97
2022-08-10T09:54:28.903Z,47.24
2022-08-10T09:56:18.636Z,44.73
2022-08-10T09:56:29.895Z,45.47
2022-08-10T09:57:44.960Z,46.00
2022-08-10T09:58:30.907Z,48.00
2022-08-10T10:00:00.427Z,47.31
2022-08-10T10:00:29.886Z,47.86
2022-08-10T10:01:58.503Z,48.50
2022-08-10T10:02:29.871Z,47.59
2022-08-10T10:03:28.949Z,49.91
2022-08-10T10:04:30.807Z,47.06
2022-08-10T10:05:28.843Z,47.18
2022-08-10T10:06:28.862Z,46.48
2022-08-10T10:07:28.823Z,45.63
2022-08-10T10:08:28.826Z,47.74
2022-08-10T10:09:28.820Z,48.80
2022-08-10T10:10:28.815Z,47.32
2022-08-10T10:11:28.820Z,47.32
2022-08-10T10:12:28.831Z,48.91
2022-08-10T10:13:50.618Z,50.30
2022-08-10T10:14:29.799Z,48.80
2022-08-10T10:15:28.779Z,45.95
2022-08-10T10:16:28.799Z,45.71
2022-08-10T10:17:28.771Z,46.14
2022-08-10T10:18:29.784Z,49.59
2022-08-10T10:19:28.764Z,46.65
2022-08-10T10:20:28.761Z,47.69
2022-08-10T10:21:55.604Z,48.92
2022-08-10T10:22:29.760Z,47.02
2022-08-10T10:23:28.763Z,47.86
2022-08-10T10:24:28.744Z,49.27
2022-08-10T10:25:29.559Z,47.26
2022-08-10T10:26:29.735Z,49.08
2022-08-10T10:27:28.727Z,45.10
2022-08-10T10:28:44.455Z,49.07
2022-08-10T10:29:56.919Z,47.44
2022-08-10T10:30:30.716Z,47.25
2022-08-10T10:31:28.708Z,47.18
2022-08-10T10:32:36.662Z,47.92
2022-08-10T10:33:29.710Z,48.67
2022-08-10T10:34:28.682Z,47.41
2022-08-10T10:35:28.685Z,49.05
2022-08-10T10:36:28.677Z,48.28
2022-08-10T10:38:01.511Z,48.29
2022-08-10T10:38:29.703Z,47.91
2022-08-10T10:39:28.710Z,48.57
2022-08-10T10:40:28.652Z,49.43
2022-08-10T10:41:28.658Z,49.30
2022-08-10T10:42:44.844Z,47.67
2022-08-10T10:43:30.656Z,48.12
2022-08-10T10:44:28.640Z,46.87
2022-08-10T10:45:28.633Z,48.24
2022-08-10T10:46:28.717Z,47.50
2022-08-10T10:47:28.632Z,48.22
2022-08-10T10:48:29.262Z,48.42
2022-08-10T10:49:28.624Z,48.10
2022-08-10T10:50:28.604Z,49.68
2022-08-10T10:51:28.610Z,46.05
2022-08-10T10:52:28.600Z,48.67
2022-08-10T10:53:28.588Z,49.12
2022-08-10T10:54:28.601Z,47.04
2022-08-10T10:55:28.580Z,47.26
2022-08-10T10:56:28.569Z,48.59
2022-08-10T10:57:58.395Z,50.85
2022-08-10T10:58:29.568Z,50.01
2022-08-10T10:59:54.568Z,48.38
2022-08-10T11:00:29.553Z,45.55
2022-08-10T11:01:28.653Z,48.08
2022-08-10T11:02:28.558Z,50.83
2022-08-10T11:03:28.556Z,46.82
2022-08-10T11:04:28.528Z,48.54
2022-08-10T11:05:28.519Z,47.31
2022-08-10T11:06:39.778Z,46.77
2022-08-10T11:07:32.006Z,50.15
2022-08-10T11:08:29.423Z,49.23
2022-08-10T11:10:08.909Z,49.82
2022-08-10T11:10:32.725Z,49.81
2022-08-10T11:12:01.624Z,49.03
2022-08-10T11:12:29.495Z,47.55
2022-08-10T11:14:24.851Z,46.00
2022-08-10T11:14:29.849Z,44.46
2022-08-10T11:15:29.492Z,49.26
2022-08-10T11:16:28.476Z,43.56
2022-08-10T11:17:28.469Z,46.32
2022-08-10T11:18:29.473Z,47.78
2022-08-10T11:20:01.860Z,48.98
2022-08-10T11:20:29.458Z,48.00
2022-08-10T11:21:28.454Z,47.86
2022-08-10T11:22:28.449Z,47.57
2022-08-10T11:23:28.448Z,48.04
2022-08-10T11:24:42.657Z,48.21
2022-08-10T11:25:29.433Z,49.66
2022-08-10T11:26:28.420Z,49.98
2022-08-10T11:27:28.432Z,49.19
2022-08-10T11:28:28.422Z,60.62
2022-08-10T11:29:28.461Z,58.64
2022-08-10T11:30:28.433Z,50.10
2022-08-10T11:31:28.424Z,46.94
2022-08-10T11:32:28.400Z,48.05
2022-08-10T11:33:32.926Z,48.73
2022-08-10T11:34:48.452Z,46.75
2022-08-10T11:35:34.170Z,45.69
2022-08-10T11:36:30.384Z,46.04
2022-08-10T11:37:28.372Z,47.36
2022-08-10T11:38:34.539Z,46.31
2022-08-10T11:39:29.513Z,48.60
2022-08-10T11:40:28.364Z,47.94
2022-08-10T11:42:09.350Z,46.11
2022-08-10T11:42:35.752Z,45.59
2022-08-10T11:43:30.360Z,46.49
2022-08-10T11:44:28.370Z,45.47
2022-08-10T11:45:28.332Z,47.07
2022-08-10T11:46:29.061Z,49.64
2022-08-10T11:47:29.329Z,47.22
2022-08-10T11:48:53.008Z,49.51
2022-08-10T11:49:29.321Z,48.42
2022-08-10T11:50:28.308Z,47.53
2022-08-10T11:51:28.305Z,47.57
2022-08-10T11:52:28.328Z,47.85
2022-08-10T11:53:35.195Z,49.12
2022-08-10T11:54:31.013Z,48.58
2022-08-10T11:55:29.120Z,47.18
2022-08-10T11:56:29.172Z,49.81
2022-08-10T11:57:29.216Z,50.09
2022-08-10T11:58:29.269Z,50.84
2022-08-10T11:59:28.280Z,54.07
2022-08-10T12:00:29.630Z,51.91
2022-08-10T12:01:28.252Z,46.24
2022-08-10T12:02:28.307Z,49.71
2022-08-10T12:03:32.638Z,49.74
2022-08-10T12:04:28.236Z,49.92
2022-08-10T12:05:53.993Z,49.54
2022-08-10T12:06:54.071Z,53.19
2022-08-10T12:10:06.867Z,53.05
2022-08-10T12:10:07.010Z,52.99
2022-08-10T12:10:10.025Z,53.02
2022-08-10T12:10:29.219Z,51.13
2022-08-10T12:11:28.184Z,46.29
2022-08-10T12:12:28.183Z,46.09
2022-08-10T12:13:28.177Z,46.85
2022-08-10T12:14:28.176Z,46.73
2022-08-10T12:15:28.169Z,47.08
2022-08-10T12:16:28.169Z,44.82
2022-08-10T12:17:28.156Z,46.13
2022-08-10T12:18:28.155Z,48.70
2022-08-10T12:19:28.149Z,45.48
2022-08-10T12:20:28.136Z,46.18
2022-08-10T12:21:28.161Z,46.27
2022-08-10T12:22:28.127Z,47.62
2022-08-10T12:23:28.108Z,46.15
2022-08-10T12:24:28.113Z,48.00
2022-08-10T12:25:55.706Z,46.84
2022-08-10T12:26:29.118Z,44.88
2022-08-10T12:27:28.098Z,46.37
2022-08-10T12:28:49.224Z,47.06
2022-08-10T12:29:29.084Z,48.10
2022-08-10T12:30:28.072Z,46.75
2022-08-10T12:31:28.078Z,47.55
2022-08-10T12:32:28.072Z,49.11
2022-08-10T12:33:28.068Z,47.53
2022-08-10T12:34:28.061Z,48.15
2022-08-10T12:35:28.052Z,51.29
2022-08-10T12:36:28.039Z,48.32
2022-08-10T12:37:28.043Z,47.15
2022-08-10T12:38:28.018Z,49.51
2022-08-10T12:39:29.091Z,51.46
2022-08-10T12:40:36.740Z,46.48
2022-08-10T12:41:44.978Z,47.93
2022-08-10T12:42:39.351Z,49.33
2022-08-10T12:44:06.438Z,46.54
2022-08-10T12:44:40.958Z,48.30
2022-08-10T12:45:28.981Z,47.56
2022-08-10T12:46:28.002Z,48.82
2022-08-10T12:47:27.977Z,48.74
2022-08-10T12:48:31.280Z,46.85
2022-08-10T12:49:27.979Z,46.58
2022-08-10T12:50:30.340Z,47.42
2022-08-10T12:51:28.957Z,48.01
2022-08-10T12:52:27.999Z,49.90